Medlin's Ranch, Nevada Weather observations

Data are for observation ending at time listed.
 Day   Time    Ave.   Ave.  Ave.  Vector   Max.   Stn.    Total    Solar   Ave.  
  of    of     Air    Rel.  Wind   Wind    Wind   Baro.  Precip.   Rad.    Soil  
Year   Day     Temp.  Hum.  Speed  Dir.    Gust   Pres.                    Temp. 
2014   (PST)    F      %     mph   deg.    mph     mb.     in.     W/m2     F   
------------------------------------------------------------------------------
 274    4:00   57.2    40    6.9   343     13.8    860     0.00       0    68.1
 274    5:00   56.0    46    8.3   339     16.2    861     0.00       0    67.5
 274    6:00   55.4    46    9.6   323     18.1    862     0.00       5    66.9
 274    7:00   55.5    45   10.7   318     19.3    863     0.00     115    66.3
 274    8:00   58.4    36   12.8   317     19.2    864     0.00     344    66.1
 274    9:00   60.6    29   14.5   319     22.6    864     0.00     548    66.8
 274   10:00   62.8    24   14.6   323     24.5    865     0.00     707    68.2
 274   11:00   64.2    20   14.3   318     26.0    864     0.00     813    69.9
 274   12:00   66.0    17   13.6   318     26.2    864     0.00     858    71.7
 274   13:00   67.2    14   11.5   320     22.9    864     0.00     833    73.4
 274   14:00   68.1    13   11.4   336     20.5    864     0.00     740    74.4
 274   15:00   68.5    11    9.4   330     18.8    864     0.00     588    74.9
 274   16:00   68.9    10    8.5     3     17.5    864     0.00     387    75.1
 274   17:00   67.5    12    8.3     4     14.6    864     0.00     169    74.8
 274   18:00   63.1    14    5.9     5     11.7    865     0.00      10    73.8
 274   19:00   57.8    19    4.6   337      8.8    866     0.00       0    72.6
 274   20:00   56.1    20    7.1   330     11.5    866     0.00       0    71.3
 274   21:00   55.2    20    8.8   322     14.5    866     0.00       0    70.0
 274   22:00   52.6    22    4.2   298      7.2    867     0.00       0    68.8
 274   23:00   48.9    25    2.9   330      5.6    867     0.00       0    67.7
 275    0:00   49.3    25    4.5   333      8.2    868     0.00       0    66.6
 275    1:00   50.2    26    5.3   312      9.9    868     0.00       0    65.6
 275    2:00   48.5    29    5.0   299      8.0    868     0.00       0    64.7
 275    3:00   46.3    31    4.3   297      8.8    868     0.00       0    63.8

Return to Medlin's Ranch, Nevada graphs page.


Western Regional Climate Center,wrcc@dri.edu